createdAt,value
2023-04-05T00:04:15.816Z,-1.22
2023-04-05T00:08:14.818Z,-1.25
2023-04-05T00:12:13.737Z,-1.29
2023-04-05T00:16:12.951Z,-1.31
2023-04-05T00:20:14.700Z,-1.33
2023-04-05T00:24:12.701Z,-1.34
2023-04-05T00:28:10.661Z,-1.35
2023-04-05T00:32:08.793Z,-1.36
2023-04-05T00:36:06.723Z,-1.39
2023-04-05T00:40:04.787Z,-1.40
2023-04-05T00:44:03.751Z,-1.41
2023-04-05T00:48:01.770Z,-1.44
2023-04-05T00:52:04.845Z,-1.48
2023-04-05T00:56:05.667Z,-1.49
2023-04-05T01:00:03.629Z,-1.52
2023-04-05T01:04:06.699Z,-1.53
2023-04-05T01:08:13.679Z,-1.52
2023-04-05T01:12:11.626Z,-1.49
2023-04-05T01:16:09.664Z,-1.48
2023-04-05T01:20:15.837Z,-1.46
2023-04-05T01:24:41.602Z,-1.39
2023-04-05T01:29:16.625Z,-1.28
2023-04-05T01:33:38.564Z,-1.19
2023-04-05T01:37:40.603Z,-1.08
2023-04-05T01:41:38.600Z,-0.99
2023-04-05T01:45:38.566Z,-0.89
2023-04-05T01:49:37.569Z,-0.84
2023-04-05T01:53:35.608Z,-0.84
2023-04-05T01:57:33.545Z,-0.83
2023-04-05T02:01:31.721Z,-0.84
2023-04-05T02:05:29.634Z,-0.86
2023-04-05T02:09:27.614Z,-0.87
2023-04-05T02:13:25.713Z,-0.94
2023-04-05T02:17:24.533Z,-1.01
2023-04-05T02:21:23.516Z,-1.05
2023-04-05T02:25:22.582Z,-1.05
2023-04-05T02:29:20.504Z,-1.07
2023-04-05T02:33:18.552Z,-1.08
2023-04-05T02:37:16.532Z,-1.09
2023-04-05T02:41:14.617Z,-1.15
2023-04-05T02:45:12.693Z,-1.23
2023-04-05T02:49:10.494Z,-1.30
2023-04-05T02:53:08.488Z,-1.39
2023-04-05T02:57:08.568Z,-1.47
2023-04-05T03:01:15.537Z,-1.52
2023-04-05T03:05:13.487Z,-1.50
2023-04-05T03:09:13.583Z,-1.53
2023-04-05T03:13:13.455Z,-1.56
2023-04-05T03:17:11.435Z,-1.57
2023-04-05T03:21:18.504Z,-1.63
2023-04-05T03:25:22.412Z,-1.67
2023-04-05T03:29:21.555Z,-1.69
2023-04-05T03:33:19.410Z,-1.73
2023-04-05T03:37:17.448Z,-1.78
2023-04-05T03:41:24.384Z,-1.81
2023-04-05T03:45:24.577Z,-1.82
2023-04-05T03:49:23.464Z,-1.84
2023-04-05T03:53:24.461Z,-1.88
2023-04-05T03:57:23.391Z,-1.88
2023-04-05T04:01:22.428Z,-1.89
2023-04-05T04:05:20.433Z,-1.88
2023-04-05T04:09:18.477Z,-1.81
2023-04-05T04:13:16.353Z,-1.77
2023-04-05T04:17:25.684Z,-1.68
2023-04-05T04:21:46.317Z,-1.59
2023-04-05T04:26:05.360Z,-1.57
2023-04-05T04:30:25.369Z,-1.69
2023-04-05T04:34:51.310Z,-1.67
2023-04-05T04:39:15.316Z,-1.68
2023-04-05T04:43:49.322Z,-1.68
2023-04-05T04:47:49.842Z,-1.70
2023-04-05T04:51:59.419Z,-1.73
2023-04-05T04:55:57.299Z,-1.73
2023-04-05T04:59:55.326Z,-1.70
2023-04-05T05:03:53.381Z,-1.67
2023-04-05T05:07:57.308Z,-1.67
2023-04-05T05:11:55.287Z,-1.68
2023-04-05T05:15:55.304Z,-1.69
2023-04-05T05:19:55.210Z,-1.65
2023-04-05T05:23:54.430Z,-1.70
2023-04-05T05:27:52.206Z,-1.75
2023-04-05T05:31:51.391Z,-1.74
2023-04-05T05:35:49.289Z,-1.80
2023-04-05T05:39:47.345Z,-1.76
2023-04-05T05:43:45.317Z,-1.76
2023-04-05T05:47:43.347Z,-1.75
2023-04-05T05:51:41.232Z,-1.74
2023-04-05T05:55:39.226Z,-1.76
2023-04-05T05:59:37.309Z,-1.81
2023-04-05T06:03:05.330Z,-1.88
2023-04-05T06:06:30.226Z,-1.89
2023-04-05T06:09:54.163Z,-1.72
2023-04-05T06:13:18.480Z,-1.58
2023-04-05T06:16:42.430Z,-1.35
2023-04-05T06:20:07.657Z,-1.26
2023-04-05T06:23:33.006Z,-1.38
2023-04-05T06:26:56.920Z,-1.36
2023-04-05T06:30:20.961Z,-1.39
2023-04-05T06:33:45.633Z,-1.37
2023-04-05T06:37:09.596Z,-1.25
2023-04-05T06:40:33.429Z,-1.14
2023-04-05T06:43:57.620Z,-1.09
2023-04-05T06:47:21.481Z,-0.94
2023-04-05T06:50:45.563Z,-0.92
2023-04-05T06:54:09.380Z,-0.95
2023-04-05T06:57:33.241Z,-0.82
2023-04-05T07:00:57.085Z,-0.78
2023-04-05T07:04:21.427Z,-0.76
2023-04-05T07:07:48.494Z,-0.77
2023-04-05T07:11:15.970Z,-0.70
2023-04-05T07:14:40.623Z,-0.61
2023-04-05T07:18:04.802Z,-0.58
2023-04-05T07:21:30.924Z,-0.51
2023-04-05T07:24:55.694Z,-0.58
2023-04-05T07:28:19.527Z,-0.64
2023-04-05T07:31:44.029Z,-0.64
2023-04-05T07:35:08.642Z,-0.63
2023-04-05T07:38:32.468Z,-0.61
2023-04-05T07:41:56.509Z,-0.54
2023-04-05T07:45:20.831Z,-0.40
2023-04-05T07:48:44.957Z,-0.30
2023-04-05T07:52:08.832Z,-0.18
2023-04-05T07:55:32.709Z,-0.09
2023-04-05T07:58:56.887Z,-0.13
2023-04-05T08:02:21.885Z,-0.22
2023-04-05T08:05:46.171Z,-0.27
2023-04-05T08:09:10.050Z,-0.33
2023-04-05T08:12:36.575Z,-0.29
2023-04-05T08:16:02.400Z,-0.11
2023-04-05T08:19:26.542Z,0.02
2023-04-05T08:22:50.390Z,0.12
2023-04-05T08:26:15.383Z,0.26
2023-04-05T08:29:39.780Z,0.27
2023-04-05T08:33:04.355Z,0.13
2023-04-05T08:36:28.378Z,0.11
2023-04-05T08:39:52.333Z,0.09
2023-04-05T08:43:29.832Z,0.03
2023-04-05T08:46:57.460Z,0.12
2023-04-05T08:50:21.596Z,0.24
2023-04-05T08:53:45.718Z,0.37
2023-04-05T08:57:10.068Z,0.59
2023-04-05T09:00:34.177Z,0.79
2023-04-05T09:04:03.121Z,1.03
2023-04-05T09:07:31.437Z,1.27
2023-04-05T09:10:55.530Z,1.19
2023-04-05T09:14:21.409Z,1.25
2023-04-05T09:17:45.647Z,1.44
2023-04-05T09:21:10.356Z,1.76
2023-04-05T09:24:36.988Z,2.11
2023-04-05T09:28:03.352Z,2.21
2023-04-05T09:31:35.654Z,2.32
2023-04-05T09:35:06.002Z,2.27
2023-04-05T09:38:46.130Z,1.89
2023-04-05T09:42:18.257Z,1.56
2023-04-05T09:45:46.197Z,1.43
2023-04-05T09:49:10.434Z,1.72
2023-04-05T09:52:35.324Z,2.07
2023-04-05T09:56:11.206Z,2.13
2023-04-05T09:59:35.599Z,2.45
2023-04-05T10:02:59.568Z,2.83
2023-04-05T10:06:23.537Z,2.90
2023-04-05T10:09:48.941Z,2.76
2023-04-05T10:13:13.545Z,2.73
2023-04-05T10:16:55.816Z,2.89
2023-04-05T10:20:24.865Z,3.25
2023-04-05T10:24:00.111Z,3.59
2023-04-05T10:27:53.285Z,3.58
2023-04-05T10:31:37.154Z,3.43
2023-04-05T10:35:11.077Z,3.52
2023-04-05T10:39:21.573Z,3.45
2023-04-05T10:42:47.641Z,3.37
2023-04-05T10:46:12.803Z,3.53
2023-04-05T10:49:41.871Z,3.71
2023-04-05T10:53:06.530Z,3.99
2023-04-05T10:56:31.136Z,4.16
2023-04-05T10:59:55.778Z,4.18
2023-04-05T11:03:48.881Z,3.90
2023-04-05T11:07:20.767Z,3.79
2023-04-05T11:10:54.521Z,3.72
2023-04-05T11:14:26.631Z,3.61
2023-04-05T11:18:23.487Z,3.62
2023-04-05T11:21:47.937Z,3.69
2023-04-05T11:25:23.997Z,3.72
2023-04-05T11:28:47.708Z,3.68
2023-04-05T11:32:13.875Z,3.47
2023-04-05T11:35:40.807Z,3.27
2023-04-05T11:39:20.230Z,3.08
2023-04-05T11:42:44.755Z,3.09
2023-04-05T11:46:08.708Z,3.17
2023-04-05T11:49:32.704Z,3.24
2023-04-05T11:53:19.739Z,3.46
2023-04-05T11:56:53.139Z,3.77
2023-04-05T12:00:18.751Z,3.89
2023-04-05T12:03:42.700Z,3.82
2023-04-05T12:07:32.640Z,3.57
2023-04-05T12:10:57.580Z,3.44
2023-04-05T12:14:24.894Z,3.58
2023-04-05T12:17:51.265Z,4.14
2023-04-05T12:21:15.675Z,4.75
2023-04-05T12:24:39.575Z,5.10
2023-04-05T12:28:09.137Z,4.81
2023-04-05T12:31:38.838Z,4.51
2023-04-05T12:35:02.669Z,4.34
2023-04-05T12:38:28.522Z,4.25
2023-04-05T12:42:01.982Z,4.08
2023-04-05T12:45:26.746Z,3.96
2023-04-05T12:48:53.800Z,3.72
2023-04-05T12:52:21.494Z,3.48
2023-04-05T12:55:50.728Z,3.32
2023-04-05T12:59:14.665Z,3.24
2023-04-05T13:02:38.630Z,3.14
2023-04-05T13:06:02.659Z,3.03
2023-04-05T13:09:28.750Z,3.00
2023-04-05T13:12:53.461Z,2.98
2023-04-05T13:16:17.941Z,3.02
2023-04-05T13:19:41.890Z,3.16
2023-04-05T13:23:10.952Z,3.37
2023-04-05T13:26:35.519Z,3.41
2023-04-05T13:29:59.355Z,3.34
2023-04-05T13:33:43.620Z,3.29
2023-04-05T13:37:41.567Z,3.31
2023-04-05T13:41:39.581Z,3.33
2023-04-05T13:45:37.540Z,3.39
2023-04-05T13:49:35.779Z,3.35
2023-04-05T13:53:33.554Z,3.30
2023-04-05T13:57:31.582Z,3.17
2023-04-05T14:01:29.665Z,3.14
2023-04-05T14:05:27.598Z,3.18
2023-04-05T14:09:25.576Z,3.25
2023-04-05T14:13:24.546Z,3.28
2023-04-05T14:17:23.553Z,3.13
2023-04-05T14:21:21.496Z,3.03
2023-04-05T14:25:19.574Z,2.95
2023-04-05T14:29:17.525Z,2.87
2023-04-05T14:33:15.489Z,2.91
2023-04-05T14:37:13.534Z,2.93
2023-04-05T14:41:12.497Z,2.97
2023-04-05T14:45:10.652Z,2.98
2023-04-05T14:49:08.553Z,2.91
2023-04-05T14:53:08.535Z,2.88
2023-04-05T14:57:06.483Z,2.83
2023-04-05T15:01:06.565Z,2.79
2023-04-05T15:05:07.436Z,2.75
2023-04-05T15:09:06.517Z,2.77
2023-04-05T15:13:04.431Z,2.78
2023-04-05T15:17:02.590Z,2.76
2023-04-05T15:21:00.423Z,2.75
2023-04-05T15:24:58.542Z,2.69
2023-04-05T15:28:56.477Z,2.64
2023-04-05T15:32:54.533Z,2.62
2023-04-05T15:36:52.391Z,2.60
2023-04-05T15:40:50.544Z,2.60
2023-04-05T15:44:49.376Z,2.58
2023-04-05T15:48:47.421Z,2.52
2023-04-05T15:52:45.403Z,2.45
2023-04-05T15:56:44.467Z,2.41
2023-04-05T16:00:42.489Z,2.38
2023-04-05T16:04:40.554Z,2.35
2023-04-05T16:08:38.443Z,2.34
2023-04-05T16:12:36.437Z,2.30
2023-04-05T16:16:41.987Z,2.26
2023-04-05T16:20:47.382Z,2.20
2023-04-05T16:24:45.440Z,2.17
2023-04-05T16:28:43.360Z,2.10
2023-04-05T16:32:41.376Z,2.09
2023-04-05T16:36:39.342Z,2.03
2023-04-05T16:40:37.371Z,2.01
2023-04-05T16:44:36.337Z,1.98
2023-04-05T16:48:34.322Z,1.99
2023-04-05T16:52:32.381Z,1.95
2023-04-05T16:56:31.730Z,1.89
2023-04-05T17:00:29.495Z,1.84
2023-04-05T17:04:27.260Z,1.80
2023-04-05T17:08:25.284Z,1.77
2023-04-05T17:12:23.293Z,1.73
2023-04-05T17:16:21.416Z,1.70
2023-04-05T17:20:19.207Z,1.68
2023-04-05T17:24:17.331Z,1.63
2023-04-05T17:28:15.226Z,1.60
2023-04-05T17:32:13.309Z,1.59
2023-04-05T17:36:11.234Z,1.55
2023-04-05T17:40:09.264Z,1.53
2023-04-05T17:44:07.262Z,1.50
2023-04-05T17:48:05.467Z,1.47
2023-04-05T17:52:03.319Z,1.44
2023-04-05T17:56:01.199Z,1.39
2023-04-05T18:00:04.217Z,1.38
2023-04-05T18:04:02.280Z,1.31
2023-04-05T18:08:00.224Z,1.24
2023-04-05T18:11:59.176Z,1.18
2023-04-05T18:15:57.191Z,1.12
2023-04-05T18:19:56.209Z,1.12
2023-04-05T18:23:54.172Z,1.32
2023-04-05T18:27:53.260Z,1.44
2023-04-05T18:31:51.258Z,1.46
2023-04-05T18:35:49.439Z,1.42
2023-04-05T18:39:48.367Z,1.36
2023-04-05T18:43:46.183Z,1.31
2023-04-05T18:47:44.121Z,1.25
2023-04-05T18:51:42.211Z,1.11
2023-04-05T18:55:40.174Z,1.04
2023-04-05T18:59:38.205Z,1.00
2023-04-05T19:03:36.171Z,0.98
2023-04-05T19:07:34.325Z,0.97
2023-04-05T19:11:32.092Z,0.98
2023-04-05T19:15:31.112Z,0.96
2023-04-05T19:19:29.182Z,0.96
2023-04-05T19:23:27.127Z,0.97
2023-04-05T19:27:26.163Z,0.98
2023-04-05T19:31:25.111Z,1.02
2023-04-05T19:35:23.108Z,1.13
2023-04-05T19:39:22.143Z,1.19
2023-04-05T19:43:21.039Z,1.18
2023-04-05T19:47:24.205Z,1.20
2023-04-05T19:51:26.113Z,1.22
2023-04-05T19:55:42.066Z,1.20
2023-04-05T19:59:44.266Z,1.20
2023-04-05T20:03:50.077Z,1.17
2023-04-05T20:07:48.031Z,1.18
2023-04-05T20:11:46.075Z,1.21
2023-04-05T20:15:50.001Z,1.17
2023-04-05T20:19:48.013Z,1.19
2023-04-05T20:23:45.975Z,1.15
2023-04-05T20:27:44.038Z,1.13
2023-04-05T20:31:47.053Z,1.08
2023-04-05T20:35:49.080Z,1.03
2023-04-05T20:39:47.054Z,1.01
2023-04-05T20:43:45.117Z,0.97
2023-04-05T20:47:43.023Z,0.97
2023-04-05T20:51:42.810Z,0.95
2023-04-05T20:55:40.986Z,0.94
2023-04-05T20:59:39.165Z,0.91
2023-04-05T21:03:37.184Z,0.90
2023-04-05T21:07:35.026Z,0.91
2023-04-05T21:11:33.104Z,0.89
2023-04-05T21:15:31.045Z,0.87
2023-04-05T21:19:28.923Z,0.86
2023-04-05T21:23:27.078Z,0.91
2023-04-05T21:27:25.020Z,0.88
2023-04-05T21:31:22.960Z,0.90
2023-04-05T21:35:21.117Z,0.91
2023-04-05T21:39:19.062Z,0.91
2023-04-05T21:43:16.956Z,0.90
2023-04-05T21:47:14.923Z,0.88
2023-04-05T21:51:12.885Z,0.87
2023-04-05T21:55:10.976Z,0.85
2023-04-05T21:59:09.098Z,0.85
2023-04-05T22:03:07.033Z,0.85
2023-04-05T22:07:04.871Z,0.83
2023-04-05T22:11:03.022Z,0.83
2023-04-05T22:15:00.829Z,0.84
2023-04-05T22:18:58.968Z,0.82
2023-04-05T22:22:56.954Z,0.80
2023-04-05T22:26:55.822Z,0.80
2023-04-05T22:30:53.917Z,0.78
2023-04-05T22:34:51.877Z,0.77
2023-04-05T22:38:51.121Z,0.74
2023-04-05T22:42:49.784Z,0.69
2023-04-05T22:46:47.936Z,0.69
2023-04-05T22:50:45.848Z,0.67
2023-04-05T22:54:43.758Z,0.66
2023-04-05T22:58:41.835Z,0.69
2023-04-05T23:02:39.826Z,0.66
2023-04-05T23:06:37.768Z,0.64
2023-04-05T23:10:35.846Z,0.64
2023-04-05T23:14:33.827Z,0.67
2023-04-05T23:18:31.807Z,0.67
2023-04-05T23:22:29.800Z,0.68
2023-04-05T23:26:28.787Z,0.64
2023-04-05T23:30:26.721Z,0.65
2023-04-05T23:34:24.699Z,0.67
2023-04-05T23:38:24.771Z,0.69
2023-04-05T23:42:22.707Z,0.70
2023-04-05T23:46:20.786Z,0.74
2023-04-05T23:50:18.686Z,0.75
2023-04-05T23:54:16.756Z,0.72
2023-04-05T23:58:14.765Z,0.75
